Weather History for KAUN - March, 2013

Change the Weather History Date:

Saturday, March 23, 2013

  Actual Average Record
Temperature  
Mean Temperature 47 °F -  
Max Temperature 62 °F 65 °F 78 °F (1960)
Min Temperature 32 °F 42 °F 32 °F (1987)
Degree Days  
Heating Degree Days 18    
Moisture  
Dew Point 31 °F    
Average Humidity 50    
Maximum Humidity 81    
Minimum Humidity 30    
Precipitation  
Precipitation 0.00 in - - ()
Sea Level Pressure  
Sea Level Pressure 30.07 in    
Wind  
Wind Speed 2 mph (WSW)    
Max Wind Speed 10 mph    
Max Gust Speed -    
Visibility 10 miles    
Events      
Averages and records for this station are not official NWS values.
T = Trace of Precipitation, MM = Missing Value Source: NWS Daily Summary

Daily Weather History Graph

Daily Weather History Graph

Search for Another Location

Airport or City:

Trip Planner

Search our weather history database for the weather conditions in past years. The results will help you decide how hot, cold, wet, or windy it might be!

Date:

Astronomy

Mar. 23, 2013 Rise Set
Actual Time 7:02 AM PDT 7:19 PM PDT
Civil Twilight 6:35 AM PDT 7:46 PM PDT
Nautical Twilight 6:04 AM PDT 8:17 PM PDT
Astronomical Twilight 5:32 AM PDT 8:49 PM PDT
Moon 3:53 PM PDT (3/23) 4:40 AM PDT (3/23)
Length of Visible Light 13h 10m
Length of Day
12h 17m
Waxing Gibbous, 86% of the Moon is Illuminated
Mar 23
Waxing Gibbous
Mar 27
Full
Apr 2
Last Quarter
Apr 10
New
Apr 18
First Quarter

Hourly Weather History & Observations

Time (PDT) Temp. Windchill Dew Point Humidity Pressure Visibility Wind Dir Wind Speed Gust Speed Precip Events Conditions
12:15 AM 46.4 °F - 28.4 °F 50% 30.05 in 10.0 mi Calm Calm - N/A   Clear
12:35 AM 44.6 °F - 30.2 °F 57% 30.06 in 10.0 mi Calm Calm - N/A   Clear
12:55 AM 44.6 °F 43.1 °F 30.2 °F 57% 30.05 in 10.0 mi East 3.5 mph - N/A   Clear
1:15 AM 44.6 °F 43.1 °F 30.2 °F 57% 30.05 in 10.0 mi ENE 3.5 mph - N/A   Clear
1:35 AM 46.4 °F - 30.2 °F 53% 30.05 in 10.0 mi Calm Calm - N/A   Clear
1:55 AM 44.6 °F 43.1 °F 30.2 °F 57% 30.06 in 10.0 mi ENE 3.5 mph - N/A   Clear
2:15 AM 46.4 °F - 28.4 °F 50% 30.05 in 10.0 mi Calm Calm - N/A   Clear
2:35 AM 44.6 °F - 28.4 °F 53% 30.05 in 10.0 mi Calm Calm - N/A   Clear
2:55 AM 44.6 °F 42.2 °F 28.4 °F 53% 30.04 in 10.0 mi ENE 4.6 mph - N/A   Clear
3:15 AM 44.6 °F - 28.4 °F 53% 30.05 in 10.0 mi Calm Calm - N/A   Clear
3:35 AM 44.6 °F 42.2 °F 26.6 °F 49% 30.04 in 10.0 mi East 4.6 mph - N/A   Clear
3:55 AM 44.6 °F 41.4 °F 23.0 °F 43% 30.03 in 10.0 mi ENE 5.8 mph - N/A   Clear
4:15 AM 46.4 °F 43.5 °F 23.0 °F 40% 30.03 in 10.0 mi East 5.8 mph - N/A   Clear
4:35 AM 41.0 °F - 26.6 °F 57% 30.04 in 10.0 mi Calm Calm - N/A   Clear
4:55 AM 37.4 °F - 26.6 °F 65% 30.04 in 10.0 mi Calm Calm - N/A   Clear
5:15 AM 37.4 °F - 28.4 °F 70% 30.04 in 10.0 mi Calm Calm - N/A   Clear
5:35 AM 33.8 °F - 26.6 °F 75% 30.04 in 10.0 mi Calm Calm - N/A   Clear
5:55 AM 33.8 °F - 26.6 °F 75% 30.04 in 10.0 mi Calm Calm - N/A   Clear
6:15 AM 33.8 °F - 28.4 °F 81% 30.05 in 10.0 mi Calm Calm - N/A   Clear
6:35 AM 32.0 °F - 26.6 °F 80% 30.05 in 10.0 mi Calm Calm - N/A   Clear
7:15 AM 32.0 °F - 26.6 °F 80% 30.07 in 10.0 mi Calm Calm - N/A   Clear
7:35 AM 35.6 °F - 24.8 °F 65% 30.07 in 10.0 mi Calm Calm - N/A   Clear
7:55 AM 39.2 °F - 24.8 °F 56% 30.07 in 10.0 mi Calm Calm - N/A   Clear
8:15 AM 41.0 °F 36.4 °F 26.6 °F 57% 30.07 in 10.0 mi East 6.9 mph - N/A   Clear
8:35 AM 44.6 °F 41.4 °F 26.6 °F 49% 30.08 in 10.0 mi ESE 5.8 mph - N/A   Clear
8:55 AM 48.2 °F - 24.8 °F 40% 30.10 in 10.0 mi Calm Calm - N/A   Clear
9:15 AM 48.2 °F - 26.6 °F 43% 30.10 in 10.0 mi Calm Calm - N/A   Clear
9:35 AM 51.8 °F - 23.0 °F 33% 30.10 in 10.0 mi Calm Calm - N/A   Clear
9:55 AM 53.6 °F - 24.8 °F 33% 30.10 in 10.0 mi Calm Calm - N/A   Clear
10:15 AM 53.6 °F - 23.0 °F 30% 30.10 in 10.0 mi Calm Calm - N/A   Clear
10:35 AM 55.4 °F - 24.8 °F 31% 30.11 in 10.0 mi Calm Calm - N/A   Clear
11:15 AM 55.4 °F - 30.2 °F 38% 30.10 in 10.0 mi SW 5.8 mph - N/A   Clear
11:35 AM 55.4 °F - 33.8 °F 44% 30.10 in 10.0 mi SW 5.8 mph - N/A   Clear
11:55 AM 57.2 °F - 33.8 °F 41% 30.10 in 10.0 mi WSW 6.9 mph - N/A   Clear
12:15 PM 55.4 °F - 35.6 °F 47% 30.10 in 10.0 mi SW 6.9 mph - N/A   Clear
12:35 PM 55.4 °F - 35.6 °F 47% 30.10 in 10.0 mi SW 8.1 mph - N/A   Clear
12:55 PM 55.4 °F - 33.8 °F 44% 30.10 in 10.0 mi WSW 8.1 mph - N/A   Clear
1:15 PM 55.4 °F - 33.8 °F 44% 30.10 in 10.0 mi SW 3.5 mph - N/A   Clear
1:35 PM 57.2 °F - 33.8 °F 41% 30.10 in 10.0 mi WNW 4.6 mph - N/A   Clear
2:15 PM 57.2 °F - 33.8 °F 41% 30.08 in 10.0 mi West 4.6 mph - N/A   Clear
2:35 PM 60.8 °F - 33.8 °F 36% 30.08 in 10.0 mi West 6.9 mph - N/A   Clear
2:55 PM 59.0 °F - 32.0 °F 36% 30.07 in 10.0 mi Calm Calm - N/A   Clear
3:15 PM 60.8 °F - 33.8 °F 36% 30.07 in 10.0 mi WNW 5.8 mph - N/A   Clear
3:35 PM 60.8 °F - 33.8 °F 36% 30.06 in 10.0 mi NW 4.6 mph - N/A   Clear
4:15 PM 62.6 °F - 32.0 °F 32% 30.05 in 10.0 mi WSW 3.5 mph - N/A   Clear
4:35 PM 62.6 °F - 32.0 °F 32% 30.04 in 10.0 mi Calm Calm - N/A   Clear
4:55 PM 62.6 °F - 32.0 °F 32% 30.05 in 10.0 mi Calm Calm - N/A   Clear
5:15 PM 62.6 °F - 32.0 °F 32% 30.05 in 10.0 mi West 3.5 mph - N/A   Clear
5:35 PM 62.6 °F - 33.8 °F 34% 30.05 in 10.0 mi West 4.6 mph - N/A   Clear
5:55 PM 60.8 °F - 33.8 °F 36% 30.05 in 10.0 mi WNW 4.6 mph - N/A   Clear
6:15 PM 60.8 °F - 32.0 °F 34% 30.05 in 10.0 mi West 4.6 mph - N/A   Clear
6:35 PM 60.8 °F - 32.0 °F 34% 30.05 in 10.0 mi West 3.5 mph - N/A   Clear
7:15 PM 57.2 °F - 32.0 °F 38% 30.05 in 10.0 mi Calm Calm - N/A   Clear
7:35 PM 53.6 °F - 35.6 °F 51% 30.05 in 10.0 mi Calm Calm - N/A   Clear
7:55 PM 48.2 °F - 35.6 °F 62% 30.05 in 10.0 mi Calm Calm - N/A   Clear
8:35 PM 46.4 °F - 35.6 °F 66% 30.06 in 10.0 mi Calm Calm - N/A   Clear
8:55 PM 48.2 °F - 35.6 °F 62% 30.06 in 10.0 mi Calm Calm - N/A   Clear
9:15 PM 48.2 °F - 35.6 °F 62% 30.07 in 10.0 mi Calm Calm - N/A   Clear
9:35 PM 44.6 °F - 35.6 °F 71% 30.07 in 10.0 mi Calm Calm - N/A   Clear
9:55 PM 46.4 °F - 35.6 °F 66% 30.08 in 10.0 mi Calm Calm - N/A   Clear
10:15 PM 48.2 °F - 32.0 °F 54% 30.08 in 10.0 mi Calm Calm - N/A   Clear
10:35 PM 48.2 °F - 33.8 °F 58% 30.08 in 10.0 mi Calm Calm - N/A   Clear
10:55 PM 50.0 °F - 33.8 °F 54% 30.08 in 10.0 mi East 8.1 mph - N/A   Clear
11:15 PM 50.0 °F - 35.6 °F 58% 30.08 in 10.0 mi East 8.1 mph - N/A   Clear
11:35 PM 50.0 °F - 35.6 °F 58% 30.08 in 10.0 mi East 9.2 mph - N/A   Clear
11:55 PM 50.0 °F - 35.6 °F 58% 30.07 in 10.0 mi East 10.4 mph - N/A   Clear